sensor_id;sensor_type;location;lat;lon;timestamp;pressure;altitude;pressure_sealevel;temperature;humidity
64354;BME280;50681;53.334;-6.536;2023-04-19T00:01:36;102278.03;;;12.78;100.00
64354;BME280;50681;53.334;-6.536;2023-04-19T00:04:02;102268.28;;;12.77;100.00
64354;BME280;50681;53.334;-6.536;2023-04-19T00:06:27;102266.25;;;12.57;100.00
64354;BME280;50681;53.334;-6.536;2023-04-19T00:08:54;102259.97;;;12.52;100.00
64354;BME280;50681;53.334;-6.536;2023-04-19T00:11:20;102264.72;;;12.34;100.00
64354;BME280;50681;53.334;-6.536;2023-04-19T00:13:46;102260.97;;;12.40;100.00
64354;BME280;50681;53.334;-6.536;2023-04-19T00:16:11;102257.94;;;12.31;100.00
64354;BME280;50681;53.334;-6.536;2023-04-19T00:18:39;102257.09;;;12.31;100.00
64354;BME280;50681;53.334;-6.536;2023-04-19T00:21:06;102250.38;;;12.33;100.00
64354;BME280;50681;53.334;-6.536;2023-04-19T00:23:31;102256.47;;;12.18;100.00
64354;BME280;50681;53.334;-6.536;2023-04-19T00:25:57;102256.00;;;11.99;100.00
64354;BME280;50681;53.334;-6.536;2023-04-19T00:28:23;102258.13;;;12.25;100.00
64354;BME280;50681;53.334;-6.536;2023-04-19T00:30:54;102246.88;;;12.38;100.00
64354;BME280;50681;53.334;-6.536;2023-04-19T00:33:20;102247.78;;;12.16;100.00
64354;BME280;50681;53.334;-6.536;2023-04-19T00:35:45;102237.78;;;12.17;100.00
64354;BME280;50681;53.334;-6.536;2023-04-19T00:38:11;102245.53;;;12.08;100.00
64354;BME280;50681;53.334;-6.536;2023-04-19T00:40:36;102248.31;;;12.13;100.00
64354;BME280;50681;53.334;-6.536;2023-04-19T00:43:02;102242.84;;;12.08;100.00
64354;BME280;50681;53.334;-6.536;2023-04-19T00:45:28;102239.91;;;11.87;100.00
64354;BME280;50681;53.334;-6.536;2023-04-19T00:47:56;102251.53;;;12.10;100.00
64354;BME280;50681;53.334;-6.536;2023-04-19T00:50:22;102226.47;;;11.98;100.00
64354;BME280;50681;53.334;-6.536;2023-04-19T00:52:47;102236.13;;;11.88;100.00
64354;BME280;50681;53.334;-6.536;2023-04-19T00:55:13;102228.25;;;11.82;100.00
64354;BME280;50681;53.334;-6.536;2023-04-19T00:57:39;102231.31;;;11.96;100.00
64354;BME280;50681;53.334;-6.536;2023-04-19T01:00:06;102236.66;;;11.85;100.00
64354;BME280;50681;53.334;-6.536;2023-04-19T01:02:35;102232.31;;;11.84;100.00
64354;BME280;50681;53.334;-6.536;2023-04-19T01:05:06;102231.59;;;11.94;100.00
64354;BME280;50681;53.334;-6.536;2023-04-19T01:07:33;102227.13;;;11.77;100.00
64354;BME280;50681;53.334;-6.536;2023-04-19T01:09:59;102233.59;;;11.76;100.00
64354;BME280;50681;53.334;-6.536;2023-04-19T01:12:24;102229.63;;;11.57;100.00
64354;BME280;50681;53.334;-6.536;2023-04-19T01:15:00;102229.16;;;11.65;100.00
64354;BME280;50681;53.334;-6.536;2023-04-19T01:17:27;102234.97;;;11.79;100.00
64354;BME280;50681;53.334;-6.536;2023-04-19T01:19:59;102233.34;;;11.78;100.00
64354;BME280;50681;53.334;-6.536;2023-04-19T01:22:26;102224.53;;;11.38;100.00
64354;BME280;50681;53.334;-6.536;2023-04-19T01:24:52;102230.47;;;11.62;100.00
64354;BME280;50681;53.334;-6.536;2023-04-19T01:27:18;102222.13;;;11.64;100.00
64354;BME280;50681;53.334;-6.536;2023-04-19T01:29:44;102227.59;;;11.47;100.00
64354;BME280;50681;53.334;-6.536;2023-04-19T01:32:10;102234.19;;;11.56;100.00
64354;BME280;50681;53.334;-6.536;2023-04-19T01:34:37;102220.88;;;11.50;100.00
64354;BME280;50681;53.334;-6.536;2023-04-19T01:37:03;102223.03;;;11.47;100.00
64354;BME280;50681;53.334;-6.536;2023-04-19T01:39:29;102219.25;;;11.49;100.00
64354;BME280;50681;53.334;-6.536;2023-04-19T01:41:54;102215.97;;;11.24;100.00
64354;BME280;50681;53.334;-6.536;2023-04-19T01:44:20;102222.63;;;11.39;100.00
64354;BME280;50681;53.334;-6.536;2023-04-19T01:46:45;102224.84;;;11.42;100.00
64354;BME280;50681;53.334;-6.536;2023-04-19T01:49:11;102209.50;;;11.25;100.00
64354;BME280;50681;53.334;-6.536;2023-04-19T01:51:38;102207.56;;;11.21;100.00
64354;BME280;50681;53.334;-6.536;2023-04-19T01:54:03;102211.09;;;11.21;100.00
64354;BME280;50681;53.334;-6.536;2023-04-19T01:56:29;102205.63;;;11.16;100.00
64354;BME280;50681;53.334;-6.536;2023-04-19T01:58:55;102199.13;;;11.17;100.00
64354;BME280;50681;53.334;-6.536;2023-04-19T02:01:21;102206.25;;;11.23;100.00
64354;BME280;50681;53.334;-6.536;2023-04-19T02:03:46;102207.75;;;11.14;100.00
64354;BME280;50681;53.334;-6.536;2023-04-19T02:06:12;102203.59;;;11.28;100.00
64354;BME280;50681;53.334;-6.536;2023-04-19T02:08:41;102199.88;;;11.35;100.00
64354;BME280;50681;53.334;-6.536;2023-04-19T02:11:11;102197.81;;;11.20;100.00
64354;BME280;50681;53.334;-6.536;2023-04-19T02:13:40;102191.09;;;11.00;100.00
64354;BME280;50681;53.334;-6.536;2023-04-19T02:16:06;102195.06;;;11.14;100.00
64354;BME280;50681;53.334;-6.536;2023-04-19T02:18:32;102184.56;;;11.18;100.00
64354;BME280;50681;53.334;-6.536;2023-04-19T02:21:03;102186.84;;;11.04;100.00
64354;BME280;50681;53.334;-6.536;2023-04-19T02:23:28;102184.72;;;11.33;100.00
64354;BME280;50681;53.334;-6.536;2023-04-19T02:25:54;102186.75;;;11.21;100.00
64354;BME280;50681;53.334;-6.536;2023-04-19T02:28:19;102188.16;;;11.24;100.00
64354;BME280;50681;53.334;-6.536;2023-04-19T02:30:47;102178.19;;;11.29;100.00
64354;BME280;50681;53.334;-6.536;2023-04-19T02:33:13;102186.50;;;11.23;100.00
64354;BME280;50681;53.334;-6.536;2023-04-19T02:35:39;102177.38;;;11.07;100.00
64354;BME280;50681;53.334;-6.536;2023-04-19T02:38:05;102170.59;;;11.26;100.00
64354;BME280;50681;53.334;-6.536;2023-04-19T02:40:33;102171.81;;;11.41;100.00
64354;BME280;50681;53.334;-6.536;2023-04-19T02:43:02;102169.22;;;11.24;100.00
64354;BME280;50681;53.334;-6.536;2023-04-19T02:45:27;102145.41;;;10.98;100.00
64354;BME280;50681;53.334;-6.536;2023-04-19T02:47:53;102166.56;;;11.29;100.00
64354;BME280;50681;53.334;-6.536;2023-04-19T02:50:19;102158.19;;;11.30;100.00
64354;BME280;50681;53.334;-6.536;2023-04-19T02:52:44;102158.47;;;11.29;100.00
64354;BME280;50681;53.334;-6.536;2023-04-19T02:55:09;102153.16;;;11.39;100.00
64354;BME280;50681;53.334;-6.536;2023-04-19T02:57:35;102134.19;;;11.12;100.00
64354;BME280;50681;53.334;-6.536;2023-04-19T03:00:04;102139.03;;;11.32;100.00
64354;BME280;50681;53.334;-6.536;2023-04-19T03:02:30;102140.22;;;11.19;100.00
64354;BME280;50681;53.334;-6.536;2023-04-19T03:04:58;102136.72;;;11.18;100.00
64354;BME280;50681;53.334;-6.536;2023-04-19T03:07:24;102136.84;;;11.07;100.00
64354;BME280;50681;53.334;-6.536;2023-04-19T03:09:51;102111.47;;;10.85;100.00
64354;BME280;50681;53.334;-6.536;2023-04-19T03:12:17;102135.66;;;10.97;100.00
64354;BME280;50681;53.334;-6.536;2023-04-19T03:14:42;102118.47;;;10.81;100.00
64354;BME280;50681;53.334;-6.536;2023-04-19T03:17:08;102143.97;;;10.91;100.00
64354;BME280;50681;53.334;-6.536;2023-04-19T03:19:33;102153.09;;;10.84;100.00
64354;BME280;50681;53.334;-6.536;2023-04-19T03:21:59;102152.44;;;10.77;100.00
64354;BME280;50681;53.334;-6.536;2023-04-19T03:24:28;102152.19;;;10.79;100.00
64354;BME280;50681;53.334;-6.536;2023-04-19T03:26:55;102131.44;;;10.62;100.00
64354;BME280;50681;53.334;-6.536;2023-04-19T03:29:20;102135.53;;;10.65;100.00
64354;BME280;50681;53.334;-6.536;2023-04-19T03:31:46;102143.94;;;10.68;100.00
64354;BME280;50681;53.334;-6.536;2023-04-19T03:34:12;102147.78;;;10.72;100.00
64354;BME280;50681;53.334;-6.536;2023-04-19T03:36:40;102148.63;;;10.73;100.00
64354;BME280;50681;53.334;-6.536;2023-04-19T03:39:06;102135.69;;;10.53;100.00
64354;BME280;50681;53.334;-6.536;2023-04-19T03:41:31;102126.56;;;10.59;100.00
64354;BME280;50681;53.334;-6.536;2023-04-19T03:43:57;102132.22;;;10.57;100.00
64354;BME280;50681;53.334;-6.536;2023-04-19T03:46:25;102127.25;;;10.49;100.00
64354;BME280;50681;53.334;-6.536;2023-04-19T03:48:50;102143.72;;;10.48;100.00
64354;BME280;50681;53.334;-6.536;2023-04-19T03:51:16;102144.09;;;10.56;100.00
64354;BME280;50681;53.334;-6.536;2023-04-19T03:53:42;102146.06;;;10.44;100.00
64354;BME280;50681;53.334;-6.536;2023-04-19T03:56:07;102130.25;;;10.36;100.00
64354;BME280;50681;53.334;-6.536;2023-04-19T03:58:33;102132.84;;;10.42;100.00
64354;BME280;50681;53.334;-6.536;2023-04-19T04:01:01;102116.19;;;10.51;100.00
64354;BME280;50681;53.334;-6.536;2023-04-19T04:03:30;102116.19;;;10.51;100.00
64354;BME280;50681;53.334;-6.536;2023-04-19T04:05:55;102129.88;;;10.44;100.00
64354;BME280;50681;53.334;-6.536;2023-04-19T04:08:20;102131.56;;;10.50;100.00
64354;BME280;50681;53.334;-6.536;2023-04-19T04:10:46;102133.13;;;10.46;100.00
64354;BME280;50681;53.334;-6.536;2023-04-19T04:13:11;102131.66;;;10.38;100.00
64354;BME280;50681;53.334;-6.536;2023-04-19T04:15:37;102129.88;;;10.44;100.00
64354;BME280;50681;53.334;-6.536;2023-04-19T04:18:02;102134.47;;;10.43;100.00
64354;BME280;50681;53.334;-6.536;2023-04-19T04:20:28;102134.66;;;10.20;100.00
64354;BME280;50681;53.334;-6.536;2023-04-19T04:22:54;102135.44;;;10.20;100.00
64354;BME280;50681;53.334;-6.536;2023-04-19T04:25:20;102128.41;;;10.19;100.00
64354;BME280;50681;53.334;-6.536;2023-04-19T04:27:50;102121.84;;;10.32;100.00
64354;BME280;50681;53.334;-6.536;2023-04-19T04:30:15;102123.34;;;10.06;100.00
64354;BME280;50681;53.334;-6.536;2023-04-19T04:32:41;102131.69;;;10.21;100.00
64354;BME280;50681;53.334;-6.536;2023-04-19T04:35:08;102131.88;;;10.14;100.00
64354;BME280;50681;53.334;-6.536;2023-04-19T04:37:35;102124.34;;;10.17;100.00
64354;BME280;50681;53.334;-6.536;2023-04-19T04:40:01;102127.41;;;10.25;100.00
64354;BME280;50681;53.334;-6.536;2023-04-19T04:42:29;102134.72;;;10.25;100.00
64354;BME280;50681;53.334;-6.536;2023-04-19T04:44:55;102132.84;;;10.42;100.00
64354;BME280;50681;53.334;-6.536;2023-04-19T04:47:22;102139.44;;;10.74;100.00
64354;BME280;50681;53.334;-6.536;2023-04-19T04:49:48;102127.81;;;10.73;100.00
64354;BME280;50681;53.334;-6.536;2023-04-19T04:52:13;102127.59;;;11.02;100.00
64354;BME280;50681;53.334;-6.536;2023-04-19T04:54:39;102123.03;;;10.81;100.00
64354;BME280;50681;53.334;-6.536;2023-04-19T04:57:05;102115.63;;;10.93;100.00
64354;BME280;50681;53.334;-6.536;2023-04-19T04:59:30;102119.44;;;11.20;100.00
64354;BME280;50681;53.334;-6.536;2023-04-19T05:01:56;102114.41;;;11.06;100.00
64354;BME280;50681;53.334;-6.536;2023-04-19T05:04:21;102120.38;;;11.08;100.00
64354;BME280;50681;53.334;-6.536;2023-04-19T05:06:46;102135.78;;;11.08;100.00
64354;BME280;50681;53.334;-6.536;2023-04-19T05:09:12;102125.91;;;11.18;100.00
64354;BME280;50681;53.334;-6.536;2023-04-19T05:11:37;102143.66;;;11.37;100.00
64354;BME280;50681;53.334;-6.536;2023-04-19T05:14:03;102146.56;;;11.57;100.00
64354;BME280;50681;53.334;-6.536;2023-04-19T05:16:29;102137.63;;;11.57;100.00
64354;BME280;50681;53.334;-6.536;2023-04-19T05:18:54;102146.66;;;11.68;100.00
64354;BME280;50681;53.334;-6.536;2023-04-19T05:21:20;102156.91;;;11.66;100.00
64354;BME280;50681;53.334;-6.536;2023-04-19T05:23:46;102160.22;;;11.73;100.00
64354;BME280;50681;53.334;-6.536;2023-04-19T05:26:11;102159.00;;;11.86;100.00
64354;BME280;50681;53.334;-6.536;2023-04-19T05:28:40;102174.88;;;11.77;100.00
64354;BME280;50681;53.334;-6.536;2023-04-19T05:31:05;102174.53;;;11.68;100.00
64354;BME280;50681;53.334;-6.536;2023-04-19T05:33:31;102178.41;;;11.77;100.00
64354;BME280;50681;53.334;-6.536;2023-04-19T05:35:57;102163.47;;;11.75;100.00
64354;BME280;50681;53.334;-6.536;2023-04-19T05:38:22;102165.19;;;11.86;100.00
64354;BME280;50681;53.334;-6.536;2023-04-19T05:40:48;102159.75;;;11.81;100.00
64354;BME280;50681;53.334;-6.536;2023-04-19T05:43:13;102166.22;;;11.80;100.00
64354;BME280;50681;53.334;-6.536;2023-04-19T05:45:38;102158.75;;;11.93;100.00
64354;BME280;50681;53.334;-6.536;2023-04-19T05:48:04;102151.28;;;11.72;100.00
64354;BME280;50681;53.334;-6.536;2023-04-19T05:50:30;102154.97;;;11.94;100.00
64354;BME280;50681;53.334;-6.536;2023-04-19T05:52:56;102154.97;;;11.94;100.00
64354;BME280;50681;53.334;-6.536;2023-04-19T05:55:21;102158.50;;;11.94;100.00
64354;BME280;50681;53.334;-6.536;2023-04-19T05:57:46;102157.13;;;11.91;100.00
64354;BME280;50681;53.334;-6.536;2023-04-19T06:00:12;102155.09;;;12.04;100.00
64354;BME280;50681;53.334;-6.536;2023-04-19T06:02:38;102157.31;;;11.80;100.00
64354;BME280;50681;53.334;-6.536;2023-04-19T06:05:04;102147.59;;;11.84;100.00
64354;BME280;50681;53.334;-6.536;2023-04-19T06:07:29;102147.13;;;11.92;100.00
64354;BME280;50681;53.334;-6.536;2023-04-19T06:09:55;102150.69;;;11.98;100.00
64354;BME280;50681;53.334;-6.536;2023-04-19T06:12:21;102161.63;;;12.08;100.00
64354;BME280;50681;53.334;-6.536;2023-04-19T06:14:46;102145.88;;;12.05;100.00
64354;BME280;50681;53.334;-6.536;2023-04-19T06:17:12;102139.94;;;12.08;100.00
64354;BME280;50681;53.334;-6.536;2023-04-19T06:19:38;102153.59;;;12.24;100.00
64354;BME280;50681;53.334;-6.536;2023-04-19T06:22:04;102160.44;;;12.31;100.00
64354;BME280;50681;53.334;-6.536;2023-04-19T06:24:29;102163.75;;;12.44;100.00
64354;BME280;50681;53.334;-6.536;2023-04-19T06:26:56;102158.94;;;12.51;100.00
64354;BME280;50681;53.334;-6.536;2023-04-19T06:29:21;102152.31;;;12.31;100.00
64354;BME280;50681;53.334;-6.536;2023-04-19T06:31:48;102155.56;;;12.33;100.00
64354;BME280;50681;53.334;-6.536;2023-04-19T06:34:14;102154.94;;;12.21;100.00
64354;BME280;50681;53.334;-6.536;2023-04-19T06:36:39;102160.75;;;12.40;100.00
64354;BME280;50681;53.334;-6.536;2023-04-19T06:39:06;102161.03;;;12.39;100.00
64354;BME280;50681;53.334;-6.536;2023-04-19T06:41:31;102164.94;;;12.58;100.00
64354;BME280;50681;53.334;-6.536;2023-04-19T06:43:57;102169.00;;;12.61;100.00
64354;BME280;50681;53.334;-6.536;2023-04-19T06:46:22;102169.50;;;12.58;100.00
64354;BME280;50681;53.334;-6.536;2023-04-19T06:48:47;102164.63;;;12.55;100.00
64354;BME280;50681;53.334;-6.536;2023-04-19T06:51:13;102163.00;;;12.59;100.00
64354;BME280;50681;53.334;-6.536;2023-04-19T06:53:40;102151.28;;;12.43;100.00
64354;BME280;50681;53.334;-6.536;2023-04-19T06:56:06;102151.34;;;12.53;100.00
64354;BME280;50681;53.334;-6.536;2023-04-19T06:58:31;102154.84;;;12.54;100.00
64354;BME280;50681;53.334;-6.536;2023-04-19T07:00:58;102157.41;;;12.76;100.00
64354;BME280;50681;53.334;-6.536;2023-04-19T07:03:26;102165.19;;;12.62;100.00
64354;BME280;50681;53.334;-6.536;2023-04-19T07:05:51;102170.41;;;12.69;100.00
64354;BME280;50681;53.334;-6.536;2023-04-19T07:08:20;102164.53;;;12.39;100.00
64354;BME280;50681;53.334;-6.536;2023-04-19T07:10:45;102160.78;;;12.45;100.00
64354;BME280;50681;53.334;-6.536;2023-04-19T07:13:11;102157.50;;;12.43;100.00
64354;BME280;50681;53.334;-6.536;2023-04-19T07:15:40;102161.69;;;12.61;100.00
64354;BME280;50681;53.334;-6.536;2023-04-19T07:18:05;102160.75;;;12.40;100.00
64354;BME280;50681;53.334;-6.536;2023-04-19T07:20:31;102171.91;;;12.49;100.00
64354;BME280;50681;53.334;-6.536;2023-04-19T07:22:59;102164.63;;;12.55;100.00
64354;BME280;50681;53.334;-6.536;2023-04-19T07:25:25;102163.38;;;12.73;100.00
64354;BME280;50681;53.334;-6.536;2023-04-19T07:27:54;102167.09;;;12.61;100.00
64354;BME280;50681;53.334;-6.536;2023-04-19T07:30:20;102155.72;;;12.59;100.00
64354;BME280;50681;53.334;-6.536;2023-04-19T07:32:46;102161.22;;;12.80;100.00
64354;BME280;50681;53.334;-6.536;2023-04-19T07:35:11;102153.84;;;12.65;100.00
64354;BME280;50681;53.334;-6.536;2023-04-19T07:37:37;102149.59;;;12.90;100.00
64354;BME280;50681;53.334;-6.536;2023-04-19T07:40:03;102146.66;;;12.97;100.00
64354;BME280;50681;53.334;-6.536;2023-04-19T07:42:29;102146.91;;;12.95;100.00
64354;BME280;50681;53.334;-6.536;2023-04-19T07:44:55;102157.16;;;12.77;100.00
64354;BME280;50681;53.334;-6.536;2023-04-19T07:47:20;102144.72;;;12.87;100.00
64354;BME280;50681;53.334;-6.536;2023-04-19T07:49:46;102155.66;;;13.13;100.00
64354;BME280;50681;53.334;-6.536;2023-04-19T07:52:11;102152.44;;;13.31;100.00
64354;BME280;50681;53.334;-6.536;2023-04-19T07:54:37;102147.63;;;13.59;100.00
64354;BME280;50681;53.334;-6.536;2023-04-19T07:57:03;102149.25;;;13.81;100.00
64354;BME280;50681;53.334;-6.536;2023-04-19T07:59:29;102149.25;;;13.50;100.00
64354;BME280;50681;53.334;-6.536;2023-04-19T08:01:58;102140.56;;;13.79;100.00
64354;BME280;50681;53.334;-6.536;2023-04-19T08:04:23;102140.56;;;13.63;100.00
64354;BME280;50681;53.334;-6.536;2023-04-19T08:06:56;102162.28;;;13.89;100.00
64354;BME280;50681;53.334;-6.536;2023-04-19T08:09:22;102142.19;;;13.75;100.00
64354;BME280;50681;53.334;-6.536;2023-04-19T08:11:47;102150.59;;;13.94;100.00
64354;BME280;50681;53.334;-6.536;2023-04-19T08:14:12;102165.00;;;13.69;100.00
64354;BME280;50681;53.334;-6.536;2023-04-19T08:16:38;102157.94;;;13.57;100.00
64354;BME280;50681;53.334;-6.536;2023-04-19T08:19:04;102151.16;;;13.75;100.00
64354;BME280;50681;53.334;-6.536;2023-04-19T08:21:29;102153.06;;;13.75;100.00
64354;BME280;50681;53.334;-6.536;2023-04-19T08:23:55;102139.47;;;13.59;100.00
64354;BME280;50681;53.334;-6.536;2023-04-19T08:26:21;102142.75;;;13.72;100.00
64354;BME280;50681;53.334;-6.536;2023-04-19T08:28:47;102138.66;;;13.85;100.00
64354;BME280;50681;53.334;-6.536;2023-04-19T08:31:13;102153.53;;;13.35;100.00
64354;BME280;50681;53.334;-6.536;2023-04-19T08:33:39;102154.38;;;13.51;100.00
64354;BME280;50681;53.334;-6.536;2023-04-19T08:36:05;102155.22;;;13.62;100.00
64354;BME280;50681;53.334;-6.536;2023-04-19T08:38:31;102170.97;;;13.55;100.00
64354;BME280;50681;53.334;-6.536;2023-04-19T08:40:56;102154.94;;;13.64;100.00
64354;BME280;50681;53.334;-6.536;2023-04-19T08:43:24;102137.56;;;13.65;100.00
64354;BME280;50681;53.334;-6.536;2023-04-19T08:45:50;102160.09;;;13.45;100.00
64354;BME280;50681;53.334;-6.536;2023-04-19T08:48:16;102140.56;;;13.53;100.00
64354;BME280;50681;53.334;-6.536;2023-04-19T08:50:42;102145.72;;;13.70;100.00
64354;BME280;50681;53.334;-6.536;2023-04-19T08:53:10;102140.56;;;13.74;100.00
64354;BME280;50681;53.334;-6.536;2023-04-19T08:55:37;102147.63;;;13.64;100.00
64354;BME280;50681;53.334;-6.536;2023-04-19T08:58:03;102143.00;;;13.55;100.00
64354;BME280;50681;53.334;-6.536;2023-04-19T09:00:29;102146.53;;;13.50;100.00
64354;BME280;50681;53.334;-6.536;2023-04-19T09:02:54;102149.50;;;13.59;100.00
64354;BME280;50681;53.334;-6.536;2023-04-19T09:05:20;102161.75;;;13.77;100.00
64354;BME280;50681;53.334;-6.536;2023-04-19T09:07:46;102172.59;;;13.77;100.00
64354;BME280;50681;53.334;-6.536;2023-04-19T09:10:17;102159.81;;;14.14;100.00
64354;BME280;50681;53.334;-6.536;2023-04-19T09:12:59;102139.72;;;14.04;100.00
64354;BME280;50681;53.334;-6.536;2023-04-19T09:15:39;102153.81;;;14.27;100.00
64354;BME280;50681;53.334;-6.536;2023-04-19T09:18:06;102142.19;;;14.01;100.00
64354;BME280;50681;53.334;-6.536;2023-04-19T09:20:37;102146.72;;;14.41;100.00
64354;BME280;50681;53.334;-6.536;2023-04-19T09:23:04;102151.91;;;14.43;100.00
64354;BME280;50681;53.334;-6.536;2023-04-19T09:25:30;102144.59;;;14.07;100.00
64354;BME280;50681;53.334;-6.536;2023-04-19T09:28:08;102156.19;;;14.60;100.00
64354;BME280;50681;53.334;-6.536;2023-04-19T09:30:34;102153.78;;;14.48;100.00
64354;BME280;50681;53.334;-6.536;2023-04-19T09:32:59;102153.88;;;15.03;100.00
64354;BME280;50681;53.334;-6.536;2023-04-19T09:35:45;102147.75;;;15.27;100.00
64354;BME280;50681;53.334;-6.536;2023-04-19T09:38:12;102148.25;;;15.34;100.00
64354;BME280;50681;53.334;-6.536;2023-04-19T09:40:40;102157.78;;;15.71;100.00
64354;BME280;50681;53.334;-6.536;2023-04-19T09:43:06;102160.41;;;15.47;100.00
64354;BME280;50681;53.334;-6.536;2023-04-19T09:45:43;102157.94;;;15.51;100.00
64354;BME280;50681;53.334;-6.536;2023-04-19T09:48:10;102149.84;;;15.40;100.00
64354;BME280;50681;53.334;-6.536;2023-04-19T09:50:57;102149.31;;;15.38;100.00
64354;BME280;50681;53.334;-6.536;2023-04-19T09:53:27;102139.81;;;14.86;100.00
64354;BME280;50681;53.334;-6.536;2023-04-19T09:55:56;102147.59;;;15.03;100.00
64354;BME280;50681;53.334;-6.536;2023-04-19T09:58:22;102142.59;;;14.70;100.00
64354;BME280;50681;53.334;-6.536;2023-04-19T10:00:48;102144.22;;;14.71;100.00
64354;BME280;50681;53.334;-6.536;2023-04-19T10:03:17;102136.69;;;14.42;100.00
64354;BME280;50681;53.334;-6.536;2023-04-19T10:05:43;102132.28;;;14.57;100.00
64354;BME280;50681;53.334;-6.536;2023-04-19T10:08:11;102125.19;;;14.61;100.00
64354;BME280;50681;53.334;-6.536;2023-04-19T10:10:38;102129.94;;;15.00;100.00
64354;BME280;50681;53.334;-6.536;2023-04-19T10:13:07;102137.84;;;15.41;100.00
64354;BME280;50681;53.334;-6.536;2023-04-19T10:15:34;102129.66;;;15.47;100.00
64354;BME280;50681;53.334;-6.536;2023-04-19T10:18:01;102118.50;;;15.03;100.00
64354;BME280;50681;53.334;-6.536;2023-04-19T10:20:41;102129.69;;;15.41;100.00
64354;BME280;50681;53.334;-6.536;2023-04-19T10:23:11;102127.69;;;15.18;100.00
64354;BME280;50681;53.334;-6.536;2023-04-19T10:25:37;102121.16;;;15.53;100.00
64354;BME280;50681;53.334;-6.536;2023-04-19T10:28:03;102114.81;;;15.63;100.00
64354;BME280;50681;53.334;-6.536;2023-04-19T10:30:28;102126.63;;;15.48;100.00
64354;BME280;50681;53.334;-6.536;2023-04-19T10:32:58;102116.44;;;15.99;100.00
64354;BME280;50681;53.334;-6.536;2023-04-19T10:35:36;102126.59;;;16.17;100.00
64354;BME280;50681;53.334;-6.536;2023-04-19T10:38:09;102130.91;;;16.24;100.00
64354;BME280;50681;53.334;-6.536;2023-04-19T10:43:24;102121.47;;;16.11;100.00
64354;BME280;50681;53.334;-6.536;2023-04-19T10:45:50;102103.44;;;15.85;100.00
64354;BME280;50681;53.334;-6.536;2023-04-19T10:51:16;102109.72;;;15.86;100.00
64354;BME280;50681;53.334;-6.536;2023-04-19T10:53:56;102111.97;;;15.79;100.00
64354;BME280;50681;53.334;-6.536;2023-04-19T11:01:36;102101.56;;;15.86;100.00
64354;BME280;50681;53.334;-6.536;2023-04-19T11:04:06;102103.56;;;15.40;100.00
64354;BME280;50681;53.334;-6.536;2023-04-19T11:06:33;102102.75;;;15.75;100.00
64354;BME280;50681;53.334;-6.536;2023-04-19T11:09:00;102118.03;;;15.70;100.00
64354;BME280;50681;53.334;-6.536;2023-04-19T11:11:27;102099.97;;;15.45;100.00
64354;BME280;50681;53.334;-6.536;2023-04-19T11:13:56;102107.84;;;15.52;100.00
64354;BME280;50681;53.334;-6.536;2023-04-19T11:16:22;102114.31;;;15.61;100.00
64354;BME280;50681;53.334;-6.536;2023-04-19T11:18:47;102109.06;;;15.35;100.00
64354;BME280;50681;53.334;-6.536;2023-04-19T11:21:13;102103.69;;;15.60;100.00
64354;BME280;50681;53.334;-6.536;2023-04-19T11:23:44;102107.28;;;15.84;100.00
64354;BME280;50681;53.334;-6.536;2023-04-19T11:26:30;102113.38;;;16.30;100.00
64354;BME280;50681;53.334;-6.536;2023-04-19T11:28:57;102103.63;;;16.48;100.00
64354;BME280;50681;53.334;-6.536;2023-04-19T11:31:22;102103.75;;;16.38;100.00
64354;BME280;50681;53.334;-6.536;2023-04-19T11:33:50;102120.53;;;15.96;100.00
64354;BME280;50681;53.334;-6.536;2023-04-19T11:36:17;102101.47;;;16.45;100.00
64354;BME280;50681;53.334;-6.536;2023-04-19T11:38:46;102101.25;;;16.17;100.00
64354;BME280;50681;53.334;-6.536;2023-04-19T11:41:12;102107.56;;;16.37;100.00
64354;BME280;50681;53.334;-6.536;2023-04-19T11:43:37;102104.19;;;16.45;100.00
64354;BME280;50681;53.334;-6.536;2023-04-19T11:46:04;102105.13;;;16.59;100.00
64354;BME280;50681;53.334;-6.536;2023-04-19T11:48:32;102109.72;;;16.83;100.00
64354;BME280;50681;53.334;-6.536;2023-04-19T11:50:58;102118.06;;;16.92;100.00
64354;BME280;50681;53.334;-6.536;2023-04-19T11:53:25;102120.31;;;17.09;100.00
64354;BME280;50681;53.334;-6.536;2023-04-19T11:58:36;102107.03;;;17.41;100.00
64354;BME280;50681;53.334;-6.536;2023-04-19T12:01:09;102118.25;;;17.20;100.00
64354;BME280;50681;53.334;-6.536;2023-04-19T12:03:52;102096.59;;;16.85;100.00
64354;BME280;50681;53.334;-6.536;2023-04-19T12:08:48;102102.88;;;17.43;100.00
64354;BME280;50681;53.334;-6.536;2023-04-19T12:11:15;102097.94;;;17.45;100.00
64354;BME280;50681;53.334;-6.536;2023-04-19T12:13:41;102105.63;;;17.24;100.00
64354;BME280;50681;53.334;-6.536;2023-04-19T12:16:09;102098.00;;;17.73;100.00
64354;BME280;50681;53.334;-6.536;2023-04-19T12:18:48;102100.34;;;18.41;100.00
64354;BME280;50681;53.334;-6.536;2023-04-19T12:21:34;102079.09;;;18.75;100.00
64354;BME280;50681;53.334;-6.536;2023-04-19T12:24:00;102085.19;;;18.72;100.00
64354;BME280;50681;53.334;-6.536;2023-04-19T12:26:27;102079.16;;;18.19;100.00
64354;BME280;50681;53.334;-6.536;2023-04-19T12:28:53;102081.59;;;18.06;100.00
64354;BME280;50681;53.334;-6.536;2023-04-19T12:31:19;102082.84;;;17.81;100.00
64354;BME280;50681;53.334;-6.536;2023-04-19T12:33:45;102086.91;;;17.84;100.00
64354;BME280;50681;53.334;-6.536;2023-04-19T12:36:11;102091.06;;;17.48;100.00
64354;BME280;50681;53.334;-6.536;2023-04-19T12:38:36;102086.47;;;17.10;100.00
64354;BME280;50681;53.334;-6.536;2023-04-19T12:41:02;102084.84;;;17.09;100.00
64354;BME280;50681;53.334;-6.536;2023-04-19T12:43:27;102078.47;;;16.95;100.00
64354;BME280;50681;53.334;-6.536;2023-04-19T12:45:54;102084.50;;;16.92;100.00